Wrights Shop, Virginia
Current Conditions -  °F | °C
As of 7:54 PM on Saturday 25 Oct 2014 (Local Time) from KLYH Reporting Station
Clear Clear  
Wind Chill: 63°   Ceiling: Unl
Heat Index: 63°   Visibility: 10mi
Dew Point: 43°   Wind: 5mph
Humidity: 48%   Direction: 240°WSW
Pressure: 29.86"   Gusts: NA
Location:  37.4692°N, 79.0906°W
Report Text: KLYH 252354Z 24004KT 10SM CLR 17/06 A2986 RMK AO2 SLP111 T01720061 10211 20161 55005
Loading
Personal Weather Stations






























Interactive Weather Map
Tropical Storm Tracking
New forecast layout! Learn more

10-Day Weather Forecast

Advertisements
Track Severe Weather on mobile